Time;durP1;ratioP1;P1;durP2;ratioP2;P2;SDS_P1;SDS_P2;PMS_P1;PMS_P2;Temp;Humidity;BMP_temperature;BMP_pressure;BME280_temperature;BME280_humidity;BME280_pressure;Samples;Min_cycle;Max_cycle;Signal;HPM_P1;HPM_P2
2023/05/10 00:02:09;;;;;;;2.10;1.65;;;16.50;99.90;;;;;;10447254;28;20043;-67
2023/05/10 00:07:10;;;;;;;2.40;1.70;;;16.60;99.90;;;;;;10448974;28;20036;-67
2023/05/10 00:12:11;;;;;;;2.65;2.10;;;16.60;99.90;;;;;;10444874;28;20025;-67
2023/05/10 00:17:11;;;;;;;2.88;2.00;;;16.60;99.90;;;;;;10445652;28;20489;-67
2023/05/10 00:22:12;;;;;;;2.92;1.90;;;16.60;99.90;;;;;;10447464;28;20025;-67
2023/05/10 00:27:12;;;;;;;3.10;1.67;;;16.50;99.90;;;;;;10443590;28;20106;-68
2023/05/10 00:32:13;;;;;;;2.65;2.00;;;16.50;99.90;;;;;;10437724;28;20029;-67
2023/05/10 00:37:14;;;;;;;2.55;1.80;;;16.50;99.90;;;;;;10444389;28;20052;-67
2023/05/10 00:42:14;;;;;;;2.33;1.80;;;16.50;99.90;;;;;;10435422;28;20026;-67
2023/05/10 00:47:16;;;;;;;2.08;1.58;;;16.50;99.90;;;;;;10439157;28;20074;-67
2023/05/10 00:52:17;;;;;;;2.30;1.80;;;16.50;99.90;;;;;;10450942;28;20095;-67
2023/05/10 00:57:17;;;;;;;2.20;1.60;;;16.50;99.90;;;;;;10447430;28;20090;-67
2023/05/10 01:02:18;;;;;;;2.03;1.75;;;16.50;99.90;;;;;;10443427;28;20093;-67
2023/05/10 01:07:19;;;;;;;2.38;1.60;;;16.40;99.90;;;;;;10440035;28;20484;-67
2023/05/10 01:12:19;;;;;;;1.75;1.45;;;16.40;99.90;;;;;;10437099;28;20155;-67
2023/05/10 01:17:22;;;;;;;1.88;1.60;;;16.40;99.90;;;;;;10446389;28;20049;-67
2023/05/10 01:23:00;;;;;;;2.47;1.60;;;16.40;99.90;;;;;;10438418;28;20032;-67
2023/05/10 01:28:31;;;;;;;2.75;1.60;;;16.40;99.90;;;;;;10439105;28;20017;-67
2023/05/10 01:34:06;;;;;;;2.03;1.48;;;16.40;99.90;;;;;;10445013;28;20032;-67
2023/05/10 01:39:25;;;;;;;3.40;1.40;;;16.40;99.90;;;;;;10438702;28;20114;-67
2023/05/10 01:44:37;;;;;;;1.80;1.40;;;16.30;99.90;;;;;;10439001;28;20029;-67
2023/05/10 01:49:50;;;;;;;1.33;1.23;;;16.30;99.90;;;;;;10436397;28;20036;-67
2023/05/10 01:55:02;;;;;;;1.80;1.55;;;16.30;99.90;;;;;;10449976;28;20028;-67
2023/05/10 02:00:04;;;;;;;1.52;1.30;;;16.30;99.90;;;;;;10436658;28;20025;-67
2023/05/10 02:05:07;;;;;;;1.35;1.10;;;16.30;99.90;;;;;;10442411;28;20477;-67
2023/05/10 02:10:10;;;;;;;1.40;1.15;;;16.30;99.90;;;;;;10435461;28;20017;-67
2023/05/10 02:15:12;;;;;;;1.35;1.10;;;16.30;99.90;;;;;;10438121;28;20037;-67
2023/05/10 02:20:15;;;;;;;1.50;1.10;;;16.30;99.90;;;;;;10441626;28;20064;-67
2023/05/10 02:25:19;;;;;;;1.13;1.00;;;16.30;99.90;;;;;;10432210;28;20030;-67
2023/05/10 02:30:20;;;;;;;1.30;1.00;;;16.30;99.90;;;;;;10449013;28;20036;-67
2023/05/10 02:35:22;;;;;;;1.52;1.02;;;16.20;99.90;;;;;;10443414;28;20025;-67
2023/05/10 02:40:23;;;;;;;1.60;1.00;;;16.20;99.90;;;;;;10439509;28;20032;-67
2023/05/10 02:45:28;;;;;;;1.00;0.90;;;16.20;99.90;;;;;;10440067;28;20079;-67
2023/05/10 02:50:32;;;;;;;1.17;1.00;;;16.20;99.90;;;;;;10443756;28;20037;-67
2023/05/10 02:55:37;;;;;;;1.58;1.10;;;16.20;99.90;;;;;;10429108;28;20036;-67
2023/05/10 03:00:38;;;;;;;0.82;0.75;;;16.20;99.90;;;;;;10434181;28;20414;-67
2023/05/10 03:05:38;;;;;;;1.75;0.80;;;16.20;99.90;;;;;;10433112;28;20188;-68
2023/05/10 03:10:50;;;;;;;1.25;1.00;;;16.10;99.90;;;;;;10437579;28;20067;-68
2023/05/10 03:16:07;;;;;;;1.88;1.10;;;16.20;99.90;;;;;;10430270;28;20017;-67
2023/05/10 03:21:12;;;;;;;1.27;1.00;;;16.10;99.90;;;;;;10452018;28;20597;-67
2023/05/10 03:26:25;;;;;;;1.63;0.95;;;16.10;99.90;;;;;;10428488;28;20219;-67
2023/05/10 03:31:25;;;;;;;1.30;1.00;;;16.10;99.90;;;;;;10449039;28;20588;-67
2023/05/10 03:36:26;;;;;;;1.23;1.10;;;16.20;99.90;;;;;;10430986;28;20383;-67
2023/05/10 03:41:27;;;;;;;1.10;1.00;;;16.10;99.90;;;;;;10450585;28;20033;-67
2023/05/10 03:46:27;;;;;;;1.40;1.00;;;16.10;99.90;;;;;;10451992;28;20021;-67
2023/05/10 03:51:28;;;;;;;1.45;1.00;;;16.10;99.90;;;;;;10459104;28;20492;-67
2023/05/10 03:56:28;;;;;;;1.35;1.00;;;16.10;99.90;;;;;;10441810;28;20443;-67
2023/05/10 04:01:29;;;;;;;1.02;0.93;;;16.10;99.90;;;;;;10456522;28;20028;-67
2023/05/10 04:06:30;;;;;;;1.65;0.93;;;16.00;99.90;;;;;;10457971;28;20553;-67
2023/05/10 04:11:31;;;;;;;1.58;1.10;;;16.00;99.90;;;;;;10435064;28;20482;-67
2023/05/10 04:16:31;;;;;;;1.52;0.95;;;16.00;99.90;;;;;;10445168;28;20036;-67
2023/05/10 04:21:32;;;;;;;1.20;0.98;;;16.00;99.90;;;;;;10448745;28;20130;-67
2023/05/10 04:26:33;;;;;;;2.75;1.10;;;16.00;99.90;;;;;;10457053;28;20032;-67
2023/05/10 04:31:34;;;;;;;1.85;0.90;;;16.00;99.90;;;;;;10453881;28;20028;-67
2023/05/10 04:36:35;;;;;;;1.30;0.90;;;16.00;99.90;;;;;;10453637;28;20021;-67
2023/05/10 04:41:38;;;;;;;2.83;2.08;;;16.00;99.90;;;;;;10442484;28;20040;-67
2023/05/10 04:46:38;;;;;;;3.40;1.23;;;16.00;99.90;;;;;;10450555;28;20098;-67
2023/05/10 04:51:39;;;;;;;1.50;0.90;;;16.00;99.90;;;;;;10447965;28;20048;-67
2023/05/10 04:56:40;;;;;;;2.15;1.00;;;16.00;99.90;;;;;;10456326;28;20021;-67
2023/05/10 05:01:41;;;;;;;2.17;1.20;;;16.00;99.90;;;;;;10439393;28;20025;-67
2023/05/10 05:06:41;;;;;;;1.10;1.00;;;15.90;99.90;;;;;;10433500;28;20029;-68
2023/05/10 05:11:42;;;;;;;3.25;1.20;;;15.90;99.90;;;;;;10442951;28;20315;-67
2023/05/10 05:16:43;;;;;;;1.95;1.10;;;15.90;99.90;;;;;;10444608;28;20045;-67
2023/05/10 05:21:43;;;;;;;1.98;1.10;;;16.00;99.90;;;;;;10433252;28;20033;-67
2023/05/10 05:26:44;;;;;;;1.65;1.00;;;15.90;99.90;;;;;;10425574;28;20033;-67
2023/05/10 05:31:44;;;;;;;1.05;0.95;;;15.90;99.90;;;;;;10428564;28;20041;-68
2023/05/10 05:36:45;;;;;;;1.52;1.00;;;16.00;99.90;;;;;;10437893;28;20090;-67
2023/05/10 05:41:46;;;;;;;1.60;1.05;;;15.90;99.90;;;;;;10445970;28;20037;-68
2023/05/10 05:46:47;;;;;;;1.50;1.08;;;15.90;99.90;;;;;;10438911;28;20039;-68
2023/05/10 05:51:49;;;;;;;1.73;1.15;;;15.90;99.90;;;;;;10441042;28;20028;-68
2023/05/10 05:56:49;;;;;;;1.65;1.13;;;16.00;99.90;;;;;;10435196;28;20230;-67
2023/05/10 06:01:50;;;;;;;1.77;1.00;;;15.90;99.90;;;;;;10430845;28;20860;-67
2023/05/10 06:06:51;;;;;;;2.05;1.23;;;15.90;99.90;;;;;;10427455;28;20057;-67
2023/05/10 06:11:51;;;;;;;1.60;1.08;;;16.00;99.90;;;;;;10443163;28;20032;-67
2023/05/10 06:16:52;;;;;;;1.27;0.93;;;15.90;99.90;;;;;;10449118;28;20535;-67
2023/05/10 06:21:53;;;;;;;1.55;1.40;;;15.90;99.90;;;;;;10443051;28;20036;-67
2023/05/10 06:26:53;;;;;;;2.08;1.25;;;15.90;99.90;;;;;;10434273;28;20030;-67
2023/05/10 06:31:54;;;;;;;1.63;0.98;;;15.90;99.90;;;;;;10451474;28;20021;-67
2023/05/10 06:36:54;;;;;;;1.73;1.15;;;16.00;99.90;;;;;;10436569;28;20040;-67
2023/05/10 06:41:55;;;;;;;4.93;1.50;;;16.00;99.90;;;;;;10443420;28;20492;-67
2023/05/10 06:46:56;;;;;;;3.10;1.27;;;15.90;99.80;;;;;;10437095;28;20554;-67
2023/05/10 06:51:56;;;;;;;1.77;1.20;;;16.00;99.80;;;;;;10444547;28;20154;-67
2023/05/10 06:56:57;;;;;;;1.90;1.10;;;16.00;99.80;;;;;;10448741;28;20096;-67
2023/05/10 07:01:58;;;;;;;2.45;1.40;;;16.00;99.80;;;;;;10443357;28;20443;-67
2023/05/10 07:06:58;;;;;;;2.03;1.65;;;16.00;99.80;;;;;;10439600;28;20032;-68
2023/05/10 07:11:59;;;;;;;2.30;1.10;;;16.00;99.70;;;;;;10438744;28;20283;-67
2023/05/10 07:17:00;;;;;;;1.48;1.15;;;16.00;99.70;;;;;;10447604;28;20040;-67
2023/05/10 07:22:01;;;;;;;2.40;1.38;;;16.00;99.70;;;;;;10449904;28;20029;-67
2023/05/10 07:27:02;;;;;;;1.73;1.17;;;16.00;99.70;;;;;;10444889;28;20044;-67
2023/05/10 07:32:02;;;;;;;3.35;1.25;;;16.00;99.70;;;;;;10449291;28;20440;-67
2023/05/10 07:37:03;;;;;;;1.65;1.30;;;16.00;99.70;;;;;;10444135;28;20044;-67
2023/05/10 07:42:04;;;;;;;3.08;1.33;;;16.10;99.60;;;;;;10451623;28;20250;-67
2023/05/10 07:47:04;;;;;;;1.85;1.20;;;16.10;99.60;;;;;;10443232;28;20132;-68
2023/05/10 07:52:05;;;;;;;1.88;1.27;;;16.10;99.50;;;;;;10454443;28;20031;-67
2023/05/10 07:57:06;;;;;;;1.75;1.10;;;16.20;99.50;;;;;;10447250;28;20606;-67
2023/05/10 08:02:06;;;;;;;1.42;1.15;;;16.10;99.50;;;;;;10442786;28;20021;-67
2023/05/10 08:07:07;;;;;;;2.17;1.10;;;16.20;99.50;;;;;;10443496;28;20033;-67
2023/05/10 08:12:07;;;;;;;1.38;0.90;;;16.50;99.60;;;;;;10442842;28;20017;-67
2023/05/10 08:17:08;;;;;;;1.70;1.20;;;16.20;99.50;;;;;;10446278;28;20060;-67
2023/05/10 08:22:09;;;;;;;2.17;1.00;;;16.20;99.50;;;;;;10448735;28;20075;-67
2023/05/10 08:27:09;;;;;;;1.52;1.23;;;16.20;99.50;;;;;;10446137;28;20029;-67
2023/05/10 08:32:10;;;;;;;1.10;1.00;;;16.20;99.40;;;;;;10453512;28;20032;-67
2023/05/10 08:37:12;;;;;;;4.03;1.30;;;16.30;99.40;;;;;;10444068;28;20396;-67
2023/05/10 08:42:18;;;;;;;2.13;1.02;;;16.30;99.40;;;;;;10443045;28;20051;-67
2023/05/10 08:47:20;;;;;;;1.70;0.93;;;16.40;99.30;;;;;;10434586;28;20056;-67
2023/05/10 08:52:24;;;;;;;2.17;1.23;;;16.30;99.30;;;;;;10446816;28;20420;-67
2023/05/10 08:57:25;;;;;;;2.00;1.27;;;16.40;99.30;;;;;;10439660;28;20060;-67
2023/05/10 09:02:26;;;;;;;3.53;1.17;;;16.50;99.20;;;;;;10450429;28;20125;-67
2023/05/10 09:07:27;;;;;;;1.88;1.38;;;16.50;99.20;;;;;;10450902;28;20025;-67
2023/05/10 09:12:28;;;;;;;2.13;1.40;;;16.40;99.20;;;;;;10444926;28;20029;-67
2023/05/10 09:17:29;;;;;;;2.13;1.27;;;16.50;99.20;;;;;;10444618;28;20039;-66
2023/05/10 09:22:30;;;;;;;1.23;1.10;;;16.60;99.20;;;;;;10449693;28;20016;-66
2023/05/10 09:27:31;;;;;;;3.83;1.20;;;16.60;99.20;;;;;;10444012;28;20076;-67
2023/05/10 09:32:48;;;;;;;2.72;1.27;;;16.60;99.20;;;;;;10440720;28;20366;-67
2023/05/10 09:37:54;;;;;;;1.70;1.05;;;16.60;99.20;;;;;;10436693;28;20021;-65
2023/05/10 09:42:58;;;;;;;5.50;2.97;;;16.60;99.20;;;;;;10442725;28;20023;-68
2023/05/10 09:48:00;;;;;;;4.65;2.60;;;16.60;99.30;;;;;;10430333;28;20036;-68
2023/05/10 09:53:03;;;;;;;4.25;2.30;;;16.60;99.30;;;;;;10440086;28;20104;-68
2023/05/10 09:58:06;;;;;;;4.68;2.67;;;16.60;99.40;;;;;;10434890;28;20024;-68
2023/05/10 10:03:15;;;;;;;5.38;2.70;;;16.60;99.40;;;;;;10434654;28;20037;-67
2023/05/10 10:08:17;;;;;;;3.78;2.30;;;16.60;99.50;;;;;;10441110;28;20024;-66
2023/05/10 10:13:18;;;;;;;3.70;2.30;;;16.70;99.50;;;;;;10441617;28;20276;-65
2023/05/10 10:18:23;;;;;;;4.53;2.30;;;16.70;99.40;;;;;;10449346;28;20029;-65
2023/05/10 10:23:27;;;;;;;;;;;16.70;99.40;;;;;;10448116;28;20021;-66
2023/05/10 10:28:49;;;;;;;4.05;1.70;;;16.70;99.50;;;;;;10433778;28;19923;-65
2023/05/10 10:34:06;;;;;;;2.53;2.13;;;16.60;99.40;;;;;;10444401;28;20071;-65
2023/05/10 10:39:10;;;;;;;3.60;1.95;;;16.70;99.50;;;;;;10429718;28;20121;-65
2023/05/10 10:44:25;;;;;;;3.15;2.22;;;16.70;99.40;;;;;;10443006;28;20428;-65
2023/05/10 10:49:26;;;;;;;3.53;2.13;;;16.70;99.40;;;;;;10444833;28;20553;-66
2023/05/10 10:54:28;;;;;;;5.32;2.28;;;16.70;99.50;;;;;;10436775;28;20021;-66
2023/05/10 10:59:29;;;;;;;2.90;2.03;;;16.70;99.50;;;;;;10443877;28;20533;-66
2023/05/10 11:04:42;;;;;;;4.90;2.00;;;16.70;99.50;;;;;;10443863;28;20024;-67
2023/05/10 11:09:43;;;;;;;2.55;1.77;;;16.70;99.50;;;;;;10437843;28;20017;-66
2023/05/10 11:14:50;;;;;;;3.30;1.85;;;16.70;99.50;;;;;;10433514;28;20021;-66
2023/05/10 11:20:09;;;;;;;4.15;2.25;;;16.60;99.60;;;;;;10432160;28;20489;-66
2023/05/10 11:25:10;;;;;;;4.00;2.53;;;16.60;99.60;;;;;;10433606;28;20021;-65
2023/05/10 11:30:12;;;;;;;4.93;3.08;;;16.60;99.60;;;;;;10437149;28;20134;-69
2023/05/10 11:35:12;;;;;;;5.82;3.67;;;16.50;99.60;;;;;;10431729;28;20036;-69
2023/05/10 11:40:14;;;;;;;6.40;3.45;;;16.60;99.70;;;;;;10425197;28;20033;-66
2023/05/10 11:45:14;;;;;;;4.90;2.70;;;16.60;99.70;;;;;;10430178;28;20166;-67
2023/05/10 11:50:16;;;;;;;6.47;3.25;;;16.60;99.70;;;;;;10429179;28;20563;-67
2023/05/10 11:55:17;;;;;;;4.90;2.90;;;16.70;99.70;;;;;;10432973;28;20332;-66
2023/05/10 12:00:18;;;;;;;5.10;3.22;;;16.70;99.60;;;;;;10437404;28;20501;-67
2023/05/10 12:05:19;;;;;;;6.82;3.20;;;16.70;99.50;;;;;;10447057;28;20074;-67
2023/05/10 12:10:26;;;;;;;5.05;3.15;;;16.80;99.50;;;;;;10445559;28;20044;-67
2023/05/10 12:15:27;;;;;;;4.32;3.00;;;16.80;99.50;;;;;;10455979;28;20075;-67
2023/05/10 12:20:28;;;;;;;5.88;3.00;;;16.80;99.50;;;;;;10442451;28;20075;-67
2023/05/10 12:25:34;;;;;;;5.22;2.85;;;16.80;99.50;;;;;;10443278;28;20102;-66
2023/05/10 12:30:35;;;;;;;5.15;2.83;;;16.80;99.50;;;;;;10434662;28;20167;-66
2023/05/10 12:35:56;;;;;;;3.53;2.35;;;16.80;99.50;;;;;;10443357;28;20013;-67
2023/05/10 12:41:01;;;;;;;5.68;2.60;;;16.80;99.50;;;;;;10433362;28;20032;-67
2023/05/10 12:46:16;;;;;;;4.13;2.55;;;16.80;99.60;;;;;;10440102;28;20045;-67
2023/05/10 12:51:19;;;;;;;3.90;2.17;;;16.70;99.50;;;;;;10445583;28;20026;-66
2023/05/10 12:56:20;;;;;;;3.45;2.28;;;16.70;99.60;;;;;;10447295;28;20025;-67
2023/05/10 13:01:20;;;;;;;3.17;2.35;;;16.80;99.60;;;;;;10440235;28;20428;-67
2023/05/10 13:06:21;;;;;;;3.70;2.13;;;16.70;99.50;;;;;;10445071;28;20044;-67
2023/05/10 13:11:22;;;;;;;3.53;2.38;;;16.70;99.60;;;;;;10453877;28;20469;-67
2023/05/10 13:16:22;;;;;;;4.95;2.28;;;16.70;99.60;;;;;;10451038;28;20604;-66
2023/05/10 13:21:24;;;;;;;4.50;3.00;;;16.70;99.60;;;;;;10445031;28;20039;-67
2023/05/10 13:26:25;;;;;;;6.78;2.97;;;16.70;99.60;;;;;;10444483;28;20028;-67
2023/05/10 13:31:25;;;;;;;4.65;2.80;;;16.70;99.70;;;;;;10440804;28;20033;-67
2023/05/10 13:36:26;;;;;;;5.72;2.60;;;16.60;99.70;;;;;;10448134;28;20025;-66
2023/05/10 13:41:27;;;;;;;4.32;2.60;;;16.60;99.70;;;;;;10462115;28;20024;-66
2023/05/10 13:46:28;;;;;;;4.93;3.10;;;16.60;99.70;;;;;;10439593;28;20104;-67
2023/05/10 13:51:29;;;;;;;4.55;2.72;;;16.60;99.70;;;;;;10443318;28;20087;-67
2023/05/10 13:56:30;;;;;;;4.60;2.47;;;16.60;99.80;;;;;;10444030;28;20104;-67
2023/05/10 14:01:30;;;;;;;3.45;2.47;;;16.60;99.70;;;;;;10449068;28;20033;-66
2023/05/10 14:06:31;;;;;;;4.25;2.92;;;16.60;99.70;;;;;;10450422;28;20025;-67
2023/05/10 14:11:32;;;;;;;4.13;2.70;;;16.70;99.70;;;;;;10453854;28;20013;-67
2023/05/10 14:16:32;;;;;;;4.40;2.60;;;16.70;99.60;;;;;;10461822;28;20036;-66
2023/05/10 14:21:33;;;;;;;3.55;2.47;;;16.70;99.60;;;;;;10438169;28;20586;-67
2023/05/10 14:26:34;;;;;;;6.15;3.97;;;16.80;99.50;;;;;;10441524;28;20036;-69
2023/05/10 14:31:35;;;;;;;9.55;3.83;;;16.80;99.40;;;;;;10441353;28;20025;-68
2023/05/10 14:36:35;;;;;;;7.43;4.05;;;16.60;99.40;;;;;;10442084;28;20378;-69
2023/05/10 14:41:36;;;;;;;10.65;5.28;;;16.60;99.50;;;;;;10431152;28;20033;-69
2023/05/10 14:46:38;;;;;;;7.05;4.20;;;16.60;99.60;;;;;;10435340;28;20025;-69
2023/05/10 14:51:38;;;;;;;10.82;4.90;;;16.50;99.60;;;;;;10434900;28;20119;-69
2023/05/10 14:56:41;;;;;;;8.43;4.13;;;16.40;99.50;;;;;;10432649;28;20017;-69
2023/05/10 15:01:41;;;;;;;6.60;4.25;;;16.50;99.60;;;;;;10430872;28;20032;-69
2023/05/10 15:06:42;;;;;;;9.93;4.78;;;16.40;99.50;;;;;;10433248;28;20104;-72
2023/05/10 15:11:44;;;;;;;8.18;4.15;;;16.30;99.50;;;;;;10428065;28;20052;-71
2023/05/10 15:16:44;;;;;;;5.85;3.03;;;16.40;99.60;;;;;;10436778;28;20064;-72
2023/05/10 15:21:45;;;;;;;4.72;2.80;;;16.50;99.40;;;;;;10431498;28;20111;-69
2023/05/10 15:26:46;;;;;;;6.32;3.17;;;16.40;99.20;;;;;;10433235;28;20303;-68
2023/05/10 15:31:47;;;;;;;6.88;3.40;;;16.50;99.20;;;;;;10432023;28;20041;-68
2023/05/10 15:36:48;;;;;;;6.00;3.33;;;16.50;99.10;;;;;;10437667;28;20033;-68
2023/05/10 15:41:48;;;;;;;7.47;3.67;;;16.40;99.10;;;;;;10450430;28;20084;-69
2023/05/10 15:46:49;;;;;;;6.90;3.75;;;16.30;99.20;;;;;;10438401;28;20489;-68
2023/05/10 15:51:50;;;;;;;6.63;3.15;;;16.30;99.20;;;;;;10443901;28;20427;-71
2023/05/10 15:56:50;;;;;;;7.72;4.10;;;16.20;99.30;;;;;;10445056;28;20017;-69
2023/05/10 16:01:51;;;;;;;6.72;3.58;;;16.20;99.40;;;;;;10447000;28;20029;-67
2023/05/10 16:06:52;;;;;;;6.15;3.42;;;16.10;99.50;;;;;;10440484;28;20014;-68
2023/05/10 16:11:53;;;;;;;7.63;3.50;;;16.00;99.50;;;;;;10445237;28;20031;-67
2023/05/10 16:16:53;;;;;;;7.13;3.17;;;16.00;99.60;;;;;;10440658;28;20028;-68
2023/05/10 16:21:54;;;;;;;7.65;3.65;;;16.00;99.70;;;;;;10447389;28;20021;-69
2023/05/10 16:26:54;;;;;;;7.18;3.63;;;16.00;99.80;;;;;;10444511;28;20021;-66
2023/05/10 16:31:55;;;;;;;7.68;3.45;;;16.00;99.80;;;;;;10441671;28;20049;-66
2023/05/10 16:36:56;;;;;;;5.95;3.47;;;15.90;99.80;;;;;;10440927;28;20025;-68
2023/05/10 16:41:56;;;;;;;4.25;3.10;;;16.00;99.80;;;;;;10444437;28;20028;-69
2023/05/10 16:46:57;;;;;;;5.05;3.25;;;16.00;99.80;;;;;;10441887;28;20408;-69
2023/05/10 16:51:57;;;;;;;7.97;3.80;;;16.10;99.80;;;;;;10459936;28;20501;-68
2023/05/10 16:56:58;;;;;;;6.50;3.28;;;16.00;99.80;;;;;;10426820;28;20025;-66
2023/05/10 17:01:59;;;;;;;5.90;3.67;;;15.90;99.80;;;;;;10436022;28;20032;-67
2023/05/10 17:06:59;;;;;;;6.45;3.10;;;15.80;99.90;;;;;;10433715;28;20021;-67
2023/05/10 17:12:02;;;;;;;5.45;3.30;;;15.80;99.90;;;;;;10437968;28;20036;-67
2023/05/10 17:17:03;;;;;;;6.00;3.00;;;15.80;99.90;;;;;;10439301;28;20025;-67
2023/05/10 17:22:03;;;;;;;5.70;3.30;;;15.80;99.90;;;;;;10431287;28;20021;-67
2023/05/10 17:27:04;;;;;;;5.28;2.80;;;15.70;99.80;;;;;;10438658;28;20397;-67
2023/05/10 17:32:04;;;;;;;4.55;2.97;;;15.80;99.80;;;;;;10433435;28;20029;-66
2023/05/10 17:37:07;;;;;;;5.10;2.92;;;15.70;99.80;;;;;;10437892;28;20079;-66
2023/05/10 17:42:08;;;;;;;7.82;4.05;;;15.70;99.90;;;;;;10430153;28;20021;-62
2023/05/10 17:47:09;;;;;;;6.13;2.92;;;15.70;99.90;;;;;;10434834;28;20033;-63
2023/05/10 17:52:09;;;;;;;8.25;2.75;;;15.80;99.90;;;;;;10430780;28;20550;-63
2023/05/10 17:57:10;;;;;;;5.50;3.08;;;15.90;99.80;;;;;;10436988;28;20436;-63
2023/05/10 18:02:10;;;;;;;5.32;2.80;;;16.00;99.70;;;;;;10435325;28;20501;-63
2023/05/10 18:07:11;;;;;;;6.90;3.53;;;16.10;99.70;;;;;;10432650;28;20024;-63
2023/05/10 18:12:12;;;;;;;4.50;2.88;;;16.20;99.60;;;;;;10436515;28;20029;-64
2023/05/10 18:17:12;;;;;;;4.25;2.33;;;16.30;99.60;;;;;;10439761;28;20029;-63
2023/05/10 18:22:13;;;;;;;5.55;2.40;;;16.20;99.50;;;;;;10440151;28;20043;-63
2023/05/10 18:27:13;;;;;;;3.20;2.30;;;16.30;99.50;;;;;;10438089;28;20033;-63
2023/05/10 18:32:15;;;;;;;4.15;2.55;;;16.30;99.50;;;;;;10437398;28;20048;-63
2023/05/10 18:37:16;;;;;;;5.90;2.70;;;16.30;99.50;;;;;;10428522;28;20022;-64
2023/05/10 18:42:17;;;;;;;3.65;2.40;;;16.30;99.50;;;;;;10427366;28;20039;-63
2023/05/10 18:47:20;;;;;;;3.25;2.22;;;16.30;99.50;;;;;;10437098;28;20031;-63
2023/05/10 18:52:20;;;;;;;4.13;2.33;;;16.30;99.50;;;;;;10444274;28;20033;-63
2023/05/10 18:57:21;;;;;;;4.03;2.55;;;16.40;99.50;;;;;;10439440;28;20056;-63
2023/05/10 19:02:24;;;;;;;3.67;2.33;;;16.30;99.50;;;;;;10441811;28;20041;-63
2023/05/10 19:07:24;;;;;;;4.07;2.35;;;16.40;99.50;;;;;;10436220;28;20017;-63
2023/05/10 19:12:25;;;;;;;3.10;2.00;;;16.40;99.60;;;;;;10433088;28;20017;-63
2023/05/10 19:17:26;;;;;;;3.70;2.70;;;16.40;99.60;;;;;;10436112;28;20059;-62
2023/05/10 19:22:26;;;;;;;4.70;2.90;;;16.30;99.50;;;;;;10437611;28;20497;-63
2023/05/10 19:27:27;;;;;;;3.15;2.28;;;16.30;99.60;;;;;;10437782;28;20021;-63
2023/05/10 19:32:27;;;;;;;3.22;2.00;;;16.30;99.60;;;;;;10432391;28;20108;-63
2023/05/10 19:37:28;;;;;;;3.83;2.22;;;16.30;99.60;;;;;;10433909;28;20033;-63
2023/05/10 19:42:29;;;;;;;4.15;2.63;;;16.30;99.70;;;;;;10442005;28;20065;-63
2023/05/10 19:47:29;;;;;;;3.55;2.03;;;16.30;99.70;;;;;;10438419;28;20504;-63
2023/05/10 19:52:30;;;;;;;3.33;2.10;;;16.20;99.70;;;;;;10437860;28;20515;-63
2023/05/10 19:57:30;;;;;;;2.70;2.15;;;16.30;99.70;;;;;;10439967;28;20107;-63
2023/05/10 20:02:31;;;;;;;3.47;2.50;;;16.20;99.70;;;;;;10436643;28;20600;-63
2023/05/10 20:07:32;;;;;;;3.28;2.17;;;16.20;99.70;;;;;;10440617;28;20055;-63
2023/05/10 20:12:32;;;;;;;4.15;2.35;;;16.20;99.80;;;;;;10444499;28;20103;-63
2023/05/10 20:17:34;;;;;;;3.95;2.45;;;16.20;99.80;;;;;;10435174;28;20041;-64
2023/05/10 20:22:35;;;;;;;3.20;2.30;;;16.20;99.80;;;;;;10447332;28;20024;-63
2023/05/10 20:27:36;;;;;;;5.78;2.67;;;16.10;99.80;;;;;;10436373;28;20508;-63
2023/05/10 20:32:37;;;;;;;3.45;2.38;;;16.10;99.90;;;;;;10442207;28;20013;-63
2023/05/10 20:37:39;;;;;;;3.78;2.80;;;16.20;99.90;;;;;;10446473;28;20066;-64
2023/05/10 20:42:40;;;;;;;2.90;2.35;;;16.10;99.90;;;;;;10442686;28;20099;-63
2023/05/10 20:47:40;;;;;;;4.40;2.92;;;16.10;99.90;;;;;;10441399;28;20108;-63
2023/05/10 20:52:41;;;;;;;3.45;2.30;;;16.10;99.90;;;;;;10437794;28;20025;-63
2023/05/10 20:57:47;;;;;;;4.13;2.83;;;16.10;99.90;;;;;;10442462;28;20106;-63
2023/05/10 21:02:47;;;;;;;4.57;2.70;;;16.00;99.90;;;;;;10442441;28;20115;-63
2023/05/10 21:07:48;;;;;;;4.05;2.72;;;16.00;99.90;;;;;;10446772;28;20424;-63
2023/05/10 21:12:49;;;;;;;3.03;2.42;;;16.00;99.90;;;;;;10437516;28;20036;-63
2023/05/10 21:17:49;;;;;;;3.65;2.90;;;16.00;99.90;;;;;;10441250;28;20041;-65
2023/05/10 21:22:50;;;;;;;4.63;2.97;;;16.00;99.90;;;;;;10442014;28;20033;-63
2023/05/10 21:27:50;;;;;;;4.43;2.75;;;15.90;99.90;;;;;;10442432;28;20040;-62
2023/05/10 21:32:52;;;;;;;5.22;2.92;;;16.00;99.90;;;;;;10443333;28;20032;-63
2023/05/10 21:37:53;;;;;;;4.40;2.72;;;16.00;99.90;;;;;;10437350;28;20060;-63
2023/05/10 21:42:53;;;;;;;4.55;2.97;;;15.90;99.90;;;;;;10435407;28;20104;-63
2023/05/10 21:47:54;;;;;;;5.13;2.88;;;15.90;99.90;;;;;;10433171;28;20082;-63
2023/05/10 21:52:55;;;;;;;5.05;3.15;;;15.90;99.90;;;;;;10446538;28;20392;-63
2023/05/10 21:57:56;;;;;;;3.97;2.63;;;15.90;99.90;;;;;;10438025;28;20607;-63
2023/05/10 22:02:57;;;;;;;5.47;3.10;;;15.90;99.90;;;;;;10430899;28;20025;-63
2023/05/10 22:07:58;;;;;;;6.43;3.42;;;15.90;99.90;;;;;;10430279;28;20036;-63
2023/05/10 22:12:59;;;;;;;4.15;3.10;;;15.80;99.90;;;;;;10441736;28;20023;-63
2023/05/10 22:17:59;;;;;;;4.70;2.92;;;15.80;99.90;;;;;;10435770;28;20056;-64
2023/05/10 22:23:00;;;;;;;3.92;2.75;;;15.80;99.90;;;;;;10433621;28;20043;-64
2023/05/10 22:28:00;;;;;;;4.03;3.00;;;15.80;99.90;;;;;;10435817;28;20484;-64
2023/05/10 22:33:01;;;;;;;4.35;3.13;;;15.80;99.90;;;;;;10445947;28;20024;-64
2023/05/10 22:38:02;;;;;;;4.32;3.15;;;15.80;99.90;;;;;;10447166;28;20032;-64
2023/05/10 22:43:02;;;;;;;4.68;3.10;;;15.80;99.90;;;;;;10438587;28;20562;-64
2023/05/10 22:48:03;;;;;;;3.25;2.63;;;15.70;99.90;;;;;;10426554;28;20374;-63
2023/05/10 22:53:05;;;;;;;4.10;2.92;;;15.70;99.90;;;;;;10447427;28;20107;-64
2023/05/10 22:58:06;;;;;;;3.85;2.80;;;15.70;99.80;;;;;;10438127;28;20028;-63
2023/05/10 23:03:06;;;;;;;4.43;3.00;;;15.70;99.80;;;;;;10441854;28;20508;-64
2023/05/10 23:08:07;;;;;;;5.93;2.70;;;15.70;99.80;;;;;;10446307;28;20526;-64
2023/05/10 23:13:08;;;;;;;3.30;2.70;;;15.70;99.80;;;;;;10449564;28;20013;-64
2023/05/10 23:18:08;;;;;;;4.07;2.90;;;15.80;99.90;;;;;;10452100;28;20047;-64
2023/05/10 23:23:10;;;;;;;4.03;2.67;;;15.70;99.80;;;;;;10436733;28;20021;-64
2023/05/10 23:28:10;;;;;;;3.92;2.67;;;15.70;99.80;;;;;;10439256;28;20016;-64
2023/05/10 23:33:13;;;;;;;5.05;3.10;;;15.60;99.90;;;;;;10449893;28;20029;-64
2023/05/10 23:38:13;;;;;;;3.72;2.60;;;15.60;99.80;;;;;;10435364;28;20353;-64
2023/05/10 23:43:15;;;;;;;3.75;2.40;;;15.60;99.80;;;;;;10449663;28;20075;-64
2023/05/10 23:48:15;;;;;;;3.88;2.42;;;15.60;99.80;;;;;;10435923;28;20618;-64
2023/05/10 23:53:16;;;;;;;3.60;2.80;;;15.60;99.80;;;;;;10437287;28;20026;-64
2023/05/10 23:58:17;;;;;;;3.65;2.50;;;15.60;99.80;;;;;;10459982;28;20029;-64
